Time,TemperatureF,DewpointF,PressureIn,WindDirection,WindDirectionDegrees,WindSpeedMPH,WindSpeedGustMPH,Humidity,HourlyPrecipIn,Conditions,Clouds,dailyrainin,SolarRadiationWatts/m^2,SoftwareType,DateUTC
2013-03-08 00:02:00,17.0,15.0,-100.00,SSW,205,2.0,4.0,91,0.00,,,0.00,0.000000,,2013-03-08 05:02:00,
2013-03-08 00:33:00,19.0,17.0,-100.00,South,172,2.0,3.0,90,0.00,,,0.00,0.000000,,2013-03-08 05:33:00,
2013-03-08 00:42:00,19.0,17.0,-100.00,South,172,2.0,3.0,90,0.00,,,0.00,0.000000,,2013-03-08 05:42:00,
2013-03-08 00:52:00,19.0,17.0,-100.00,South,172,2.0,3.0,90,0.00,,,0.00,0.000000,,2013-03-08 05:52:00,
2013-03-08 01:01:00,19.0,17.0,-100.00,South,172,2.0,3.0,90,0.00,,,0.00,0.000000,,2013-03-08 06:01:00,
2013-03-08 01:11:00,19.0,17.0,-100.00,South,172,2.0,3.0,90,0.00,,,0.00,0.000000,,2013-03-08 06:11:00,
2013-03-08 01:32:00,17.0,14.0,-100.00,SSW,197,1.0,3.0,88,0.00,,,0.00,0.000000,,2013-03-08 06:32:00,
2013-03-08 01:42:00,17.0,14.0,-100.00,SSW,197,1.0,3.0,88,0.00,,,0.00,0.000000,,2013-03-08 06:42:00,
2013-03-08 01:52:00,17.0,14.0,-100.00,SSW,197,1.0,3.0,88,0.00,,,0.00,0.000000,,2013-03-08 06:52:00,
2013-03-08 02:01:00,17.0,14.0,-100.00,SSW,197,1.0,3.0,88,0.00,,,0.00,0.000000,,2013-03-08 07:01:00,
2013-03-08 02:11:00,17.0,14.0,-100.00,SSW,197,1.0,3.0,88,0.00,,,0.00,0.000000,,2013-03-08 07:11:00,
2013-03-08 02:32:00,11.0,8.0,-100.00,SSW,196,2.0,3.0,87,0.00,,,0.00,0.000000,,2013-03-08 07:32:00,
2013-03-08 02:42:00,11.0,8.0,-100.00,SSW,196,2.0,3.0,87,0.00,,,0.00,0.000000,,2013-03-08 07:42:00,
2013-03-08 02:52:00,11.0,8.0,-100.00,SSW,196,2.0,3.0,87,0.00,,,0.00,0.000000,,2013-03-08 07:52:00,
2013-03-08 03:01:00,11.0,8.0,-100.00,SSW,196,2.0,3.0,87,0.00,,,0.00,0.000000,,2013-03-08 08:01:00,
2013-03-08 03:11:00,11.0,8.0,-100.00,SSW,196,2.0,3.0,87,0.00,,,0.00,0.000000,,2013-03-08 08:11:00,
2013-03-08 03:32:00,10.0,7.0,-100.00,SSW,197,2.0,3.0,87,0.00,,,0.00,0.000000,,2013-03-08 08:32:00,
2013-03-08 03:42:00,10.0,7.0,-100.00,SSW,197,2.0,3.0,87,0.00,,,0.00,0.000000,,2013-03-08 08:42:00,
2013-03-08 03:52:00,10.0,7.0,-100.00,SSW,197,2.0,3.0,87,0.00,,,0.00,0.000000,,2013-03-08 08:52:00,
2013-03-08 04:03:00,10.0,7.0,-100.00,SSW,197,2.0,3.0,87,0.00,,,0.00,0.000000,,2013-03-08 09:03:00,
2013-03-08 04:11:00,10.0,7.0,-100.00,SSW,197,2.0,3.0,87,0.00,,,0.00,0.000000,,2013-03-08 09:11:00,
2013-03-08 04:32:00,9.0,6.0,-100.00,SSW,194,0.0,3.0,87,0.00,,,0.00,0.000000,,2013-03-08 09:32:00,
2013-03-08 04:42:00,9.0,6.0,-100.00,SSW,194,0.0,3.0,87,0.00,,,0.00,0.000000,,2013-03-08 09:42:00,
2013-03-08 04:52:00,9.0,6.0,-100.00,SSW,194,0.0,3.0,87,0.00,,,0.00,0.000000,,2013-03-08 09:52:00,
2013-03-08 05:01:00,9.0,6.0,-100.00,SSW,194,0.0,3.0,87,0.00,,,0.00,0.000000,,2013-03-08 10:01:00,
2013-03-08 05:11:00,9.0,6.0,-100.00,SSW,194,0.0,3.0,87,0.00,,,0.00,0.000000,,2013-03-08 10:11:00,
2013-03-08 05:32:00,11.0,8.0,-100.00,SW,218,2.0,5.0,88,0.00,,,0.00,0.000000,,2013-03-08 10:32:00,
2013-03-08 05:42:00,11.0,8.0,-100.00,SW,218,2.0,5.0,88,0.00,,,0.00,0.000000,,2013-03-08 10:42:00,
2013-03-08 05:52:00,11.0,8.0,-100.00,SW,218,2.0,5.0,88,0.00,,,0.00,0.000000,,2013-03-08 10:52:00,
2013-03-08 06:01:00,11.0,8.0,-100.00,SW,218,2.0,5.0,88,0.00,,,0.00,0.000000,,2013-03-08 11:01:00,
2013-03-08 06:11:00,11.0,8.0,-100.00,SW,218,2.0,5.0,88,0.00,,,0.00,0.000000,,2013-03-08 11:11:00,
2013-03-08 06:32:00,10.0,7.0,-100.00,SSW,199,2.0,4.0,87,0.00,,,0.00,0.000000,,2013-03-08 11:32:00,
2013-03-08 06:42:00,10.0,7.0,-100.00,SSW,199,2.0,4.0,87,0.00,,,0.00,0.000000,,2013-03-08 11:42:00,
2013-03-08 06:52:00,10.0,7.0,-100.00,SSW,199,2.0,4.0,87,0.00,,,0.00,0.000000,,2013-03-08 11:52:00,
2013-03-08 07:01:00,10.0,7.0,-100.00,SSW,199,2.0,4.0,87,0.00,,,0.00,0.000000,,2013-03-08 12:01:00,
2013-03-08 07:11:00,10.0,7.0,-100.00,SSW,199,2.0,4.0,87,0.00,,,0.00,0.000000,,2013-03-08 12:11:00,
2013-03-08 07:32:00,11.0,8.0,-100.00,SSW,207,1.0,3.0,88,0.00,,,0.00,0.000000,,2013-03-08 12:32:00,
2013-03-08 07:43:00,11.0,8.0,-100.00,SSW,207,1.0,3.0,88,0.00,,,0.00,0.000000,,2013-03-08 12:43:00,
2013-03-08 07:53:00,11.0,8.0,-100.00,SSW,207,1.0,3.0,88,0.00,,,0.00,0.000000,,2013-03-08 12:53:00,
2013-03-08 08:01:00,11.0,8.0,-100.00,SSW,207,1.0,3.0,88,0.00,,,0.00,0.000000,,2013-03-08 13:01:00,
2013-03-08 08:11:00,11.0,8.0,-100.00,SSW,207,1.0,3.0,88,0.00,,,0.00,0.000000,,2013-03-08 13:11:00,
2013-03-08 08:42:00,17.0,14.0,-100.00,SSW,203,2.0,4.0,88,0.00,,,-99.99,47.000000,,2013-03-08 13:42:00,
2013-03-08 08:52:00,17.0,14.0,-100.00,SSW,203,2.0,4.0,88,0.00,,,-99.99,47.000000,,2013-03-08 13:52:00,
2013-03-08 09:02:00,17.0,14.0,-100.00,SSW,203,2.0,4.0,88,0.00,,,-99.99,47.000000,,2013-03-08 14:02:00,
2013-03-08 09:11:00,17.0,14.0,-100.00,SSW,203,2.0,4.0,88,0.00,,,-99.99,47.000000,,2013-03-08 14:11:00,
2013-03-08 09:32:00,21.0,18.0,-100.00,SSW,195,4.0,7.0,87,0.00,,,0.00,157.000000,,2013-03-08 14:32:00,
2013-03-08 09:42:00,21.0,18.0,-100.00,SSW,195,4.0,7.0,87,0.00,,,0.00,157.000000,,2013-03-08 14:42:00,
2013-03-08 09:52:00,21.0,18.0,-100.00,SSW,195,4.0,7.0,87,0.00,,,0.00,157.000000,,2013-03-08 14:52:00,
2013-03-08 10:03:00,21.0,18.0,-100.00,SSW,195,4.0,7.0,87,0.00,,,0.00,157.000000,,2013-03-08 15:03:00,
2013-03-08 10:11:00,21.0,18.0,-100.00,SSW,195,4.0,7.0,87,0.00,,,0.00,157.000000,,2013-03-08 15:11:00,
2013-03-08 10:32:00,26.0,19.0,-100.00,South,177,6.0,11.0,73,0.00,,,0.00,386.000000,,2013-03-08 15:32:00,
2013-03-08 10:43:00,26.0,19.0,-100.00,South,177,6.0,11.0,73,0.00,,,0.00,386.000000,,2013-03-08 15:43:00,
2013-03-08 10:53:00,26.0,19.0,-100.00,South,177,6.0,11.0,73,0.00,,,0.00,386.000000,,2013-03-08 15:53:00,
2013-03-08 11:01:00,26.0,19.0,-100.00,South,177,6.0,11.0,73,0.00,,,0.00,386.000000,,2013-03-08 16:01:00,
2013-03-08 11:11:00,26.0,19.0,-100.00,South,177,6.0,11.0,73,0.00,,,0.00,386.000000,,2013-03-08 16:11:00,
2013-03-08 11:32:00,29.0,18.0,-100.00,SSW,212,7.0,15.0,63,0.00,,,0.00,554.000000,,2013-03-08 16:32:00,
2013-03-08 11:42:00,29.0,18.0,-100.00,SSW,212,7.0,15.0,63,0.00,,,0.00,554.000000,,2013-03-08 16:42:00,
2013-03-08 11:52:00,29.0,18.0,-100.00,SSW,212,7.0,15.0,63,0.00,,,0.00,554.000000,,2013-03-08 16:52:00,
2013-03-08 12:02:00,29.0,18.0,-100.00,SSW,212,7.0,15.0,63,0.00,,,0.00,554.000000,,2013-03-08 17:02:00,
2013-03-08 12:11:00,29.0,18.0,-100.00,SSW,212,7.0,15.0,63,0.00,,,0.00,554.000000,,2013-03-08 17:11:00,
2013-03-08 12:32:00,30.0,17.0,-100.00,SSW,197,6.0,14.0,59,0.00,,,0.00,542.000000,,2013-03-08 17:32:00,
2013-03-08 12:42:00,30.0,17.0,-100.00,SSW,197,6.0,14.0,59,0.00,,,0.00,542.000000,,2013-03-08 17:42:00,
2013-03-08 12:52:00,30.0,17.0,-100.00,SSW,197,6.0,14.0,59,0.00,,,0.00,542.000000,,2013-03-08 17:52:00,
2013-03-08 13:02:00,30.0,17.0,-100.00,SSW,197,6.0,14.0,59,0.00,,,0.00,542.000000,,2013-03-08 18:02:00,
2013-03-08 13:11:00,30.0,17.0,-100.00,SSW,197,6.0,14.0,59,0.00,,,0.00,542.000000,,2013-03-08 18:11:00,
2013-03-08 13:32:00,35.0,19.0,-100.00,South,188,6.0,15.0,51,0.00,,,0.00,617.000000,,2013-03-08 18:32:00,
2013-03-08 13:42:00,35.0,19.0,-100.00,South,188,6.0,15.0,51,0.00,,,0.00,617.000000,,2013-03-08 18:42:00,
2013-03-08 13:52:00,35.0,19.0,-100.00,South,188,6.0,15.0,51,0.00,,,0.00,617.000000,,2013-03-08 18:52:00,
2013-03-08 14:01:00,35.0,19.0,-100.00,South,188,6.0,15.0,51,0.00,,,0.00,617.000000,,2013-03-08 19:01:00,
2013-03-08 14:11:00,35.0,19.0,-100.00,South,188,6.0,15.0,51,0.00,,,0.00,617.000000,,2013-03-08 19:11:00,
2013-03-08 14:42:00,38.0,18.0,-100.00,South,186,6.0,15.0,44,0.00,,,0.00,647.000000,,2013-03-08 19:42:00,
2013-03-08 14:52:00,38.0,18.0,-100.00,South,186,6.0,15.0,44,0.00,,,0.00,647.000000,,2013-03-08 19:52:00,
2013-03-08 15:01:00,38.0,18.0,-100.00,South,186,6.0,15.0,44,0.00,,,0.00,647.000000,,2013-03-08 20:01:00,
2013-03-08 15:11:00,38.0,18.0,-100.00,South,186,6.0,15.0,44,0.00,,,0.00,647.000000,,2013-03-08 20:11:00,
2013-03-08 15:32:00,39.0,18.0,-100.00,SSE,166,9.0,17.0,42,0.00,,,0.00,638.000000,,2013-03-08 20:32:00,
2013-03-08 15:42:00,39.0,18.0,-100.00,SSE,166,9.0,17.0,42,0.00,,,0.00,638.000000,,2013-03-08 20:42:00,
2013-03-08 15:53:00,39.0,18.0,-100.00,SSE,166,9.0,17.0,42,0.00,,,0.00,638.000000,,2013-03-08 20:53:00,
2013-03-08 16:02:00,39.0,18.0,-100.00,SSE,166,9.0,17.0,42,0.00,,,0.00,638.000000,,2013-03-08 21:02:00,
2013-03-08 16:11:00,39.0,18.0,-100.00,SSE,166,9.0,17.0,42,0.00,,,0.00,638.000000,,2013-03-08 21:11:00,
2013-03-08 16:33:00,40.0,19.0,-100.00,SSW,192,7.0,14.0,42,0.00,,,0.00,489.000000,,2013-03-08 21:33:00,
2013-03-08 16:42:00,40.0,19.0,-100.00,SSW,192,7.0,14.0,42,0.00,,,0.00,489.000000,,2013-03-08 21:42:00,
2013-03-08 16:52:00,40.0,19.0,-100.00,SSW,192,7.0,14.0,42,0.00,,,0.00,489.000000,,2013-03-08 21:52:00,
2013-03-08 17:01:00,40.0,19.0,-100.00,SSW,192,7.0,14.0,42,0.00,,,0.00,489.000000,,2013-03-08 22:01:00,
2013-03-08 17:11:00,40.0,19.0,-100.00,SSW,192,7.0,14.0,42,0.00,,,0.00,489.000000,,2013-03-08 22:11:00,
2013-03-08 17:12:00,39.0,16.0,-100.00,SSW,199,7.0,17.0,39,0.00,,,0.00,328.000000,,2013-03-08 22:12:00,
2013-03-08 17:42:00,39.0,16.0,-100.00,SSW,199,7.0,17.0,39,0.00,,,0.00,328.000000,,2013-03-08 22:42:00,
2013-03-08 17:53:00,39.0,16.0,-100.00,SSW,199,7.0,17.0,39,0.00,,,0.00,328.000000,,2013-03-08 22:53:00,
2013-03-08 18:01:00,39.0,16.0,-100.00,SSW,199,7.0,17.0,39,0.00,,,0.00,328.000000,,2013-03-08 23:01:00,
2013-03-08 18:42:00,37.0,17.0,-100.00,SSW,194,6.0,15.0,44,0.00,,,0.00,128.000000,,2013-03-08 23:42:00,
2013-03-08 18:53:00,37.0,17.0,-100.00,SSW,194,6.0,15.0,44,0.00,,,0.00,128.000000,,2013-03-08 23:53:00,
2013-03-08 19:02:00,37.0,17.0,-100.00,SSW,194,6.0,15.0,44,0.00,,,0.00,128.000000,,2013-03-09 00:02:00,
2013-03-08 19:11:00,37.0,17.0,-100.00,SSW,194,6.0,15.0,44,0.00,,,0.00,128.000000,,2013-03-09 00:11:00,
2013-03-08 19:12:00,34.0,18.0,-100.00,South,180,4.0,9.0,52,0.00,,,0.00,19.000000,,2013-03-09 00:12:00,
2013-03-08 19:42:00,34.0,18.0,-100.00,South,180,4.0,9.0,52,0.00,,,0.00,19.000000,,2013-03-09 00:42:00,
2013-03-08 19:52:00,34.0,18.0,-100.00,South,180,4.0,9.0,52,0.00,,,0.00,19.000000,,2013-03-09 00:52:00,
2013-03-08 20:01:00,34.0,18.0,-100.00,South,180,4.0,9.0,52,0.00,,,0.00,19.000000,,2013-03-09 01:01:00,
2013-03-08 22:32:00,27.0,20.0,-100.00,SSE,161,4.0,7.0,75,-99.99,,,0.00,0.000000,,2013-03-09 03:32:00,
2013-03-08 22:42:00,27.0,20.0,-100.00,SSE,161,4.0,7.0,75,-99.99,,,0.00,0.000000,,2013-03-09 03:42:00,
2013-03-08 22:52:00,27.0,20.0,-100.00,SSE,161,4.0,7.0,75,-99.99,,,0.00,0.000000,,2013-03-09 03:52:00,
2013-03-08 23:01:00,27.0,20.0,-100.00,SSE,161,4.0,7.0,75,-99.99,,,0.00,0.000000,,2013-03-09 04:01:00,
2013-03-08 23:11:00,27.0,20.0,-100.00,SSE,161,4.0,7.0,75,-99.99,,,0.00,0.000000,,2013-03-09 04:11:00,
2013-03-08 23:32:00,26.0,21.0,-100.00,SSE,158,4.0,9.0,80,0.00,,,0.00,0.000000,,2013-03-09 04:32:00,
2013-03-08 23:42:00,26.0,21.0,-100.00,SSE,158,4.0,9.0,80,0.00,,,0.00,0.000000,,2013-03-09 04:42:00,
2013-03-08 23:52:00,26.0,21.0,-100.00,SSE,158,4.0,9.0,80,0.00,,,0.00,0.000000,,2013-03-09 04:52:00,